Time;durP1;ratioP1;P1;durP2;ratioP2;P2;SDS_P1;SDS_P2;PMS_P1;PMS_P2;Temp;Humidity;BMP_temperature;BMP_pressure;BME280_temperature;BME280_humidity;BME280_pressure;Samples;Min_cycle;Max_cycle;Signal;HPM_P1;HPM_P2
2022/11/03 00:01:43;;;;;;;;;;;4.90;99.90;;;;;;5059607;28;19921;-69
2022/11/03 00:04:10;;;;;;;;;;;4.90;99.90;;;;;;5072260;28;19920;-68
2022/11/03 00:06:39;;;;;;;;;;;4.80;99.90;;;;;;5083920;28;19982;-68
2022/11/03 00:09:06;;;;;;;;;;;4.80;99.90;;;;;;5066581;28;19984;-68
2022/11/03 00:11:33;;;;;;;;;;;4.80;99.90;;;;;;5064093;28;19988;-68
2022/11/03 00:14:00;;;;;;;;;;;4.70;99.90;;;;;;5064398;28;19925;-68
2022/11/03 00:16:26;;;;;;;;;;;4.70;99.90;;;;;;5063430;28;20000;-68
2022/11/03 00:18:53;;;;;;;;;;;4.70;99.90;;;;;;5064034;28;20184;-68
2022/11/03 00:21:20;;;;;;;;;;;4.70;99.90;;;;;;5063984;28;19967;-68
2022/11/03 00:23:48;;;;;;;;;;;4.70;99.90;;;;;;5063937;28;19963;-69
2022/11/03 00:26:16;;;;;;;;;;;4.70;99.90;;;;;;5063216;28;19987;-68
2022/11/03 00:28:43;;;;;;;;;;;4.70;99.90;;;;;;5064011;28;20008;-67
2022/11/03 00:31:10;;;;;;;;;;;4.70;99.90;;;;;;5063873;28;19967;-68
2022/11/03 00:33:38;;;;;;;;;;;4.70;99.90;;;;;;5064287;28;20019;-70
2022/11/03 00:36:05;;;;;;;;;;;4.70;99.90;;;;;;5063224;28;20231;-68
2022/11/03 00:38:31;;;;;;;;;;;4.70;99.90;;;;;;5063850;28;19956;-70
2022/11/03 00:41:00;;;;;;;;;;;4.70;99.90;;;;;;5063732;28;19988;-68
2022/11/03 00:43:27;;;;;;;;;;;4.70;99.90;;;;;;5063895;28;19988;-68
2022/11/03 00:45:54;;;;;;;;;;;4.70;99.90;;;;;;5062951;28;19927;-68
2022/11/03 00:48:31;;;;;;;;;;;4.70;99.90;;;;;;5064117;28;19952;-68
2022/11/03 00:51:01;;;;;;;;;;;4.60;99.90;;;;;;5061570;28;19921;-68
2022/11/03 00:53:28;;;;;;;;;;;4.60;99.90;;;;;;5063581;28;19960;-68
2022/11/03 00:55:55;;;;;;;;;;;4.60;99.90;;;;;;5062970;28;19952;-68
2022/11/03 00:58:23;;;;;;;;;;;4.60;99.90;;;;;;5061394;28;19959;-68
2022/11/03 01:00:49;;;;;;;;;;;4.60;99.90;;;;;;5063235;28;19992;-68
2022/11/03 01:03:16;;;;;;;;;;;4.60;99.90;;;;;;5063803;28;19988;-70
2022/11/03 01:08:31;;;;;;;;;;;4.50;99.90;;;;;;5070807;28;19924;-68
2022/11/03 01:13:49;;;;;;;;;;;4.50;99.90;;;;;;5063313;28;19954;-70
2022/11/03 01:16:16;;;;;;;;;;;4.50;99.90;;;;;;5062743;28;19987;-68
2022/11/03 01:18:43;;;;;;;;;;;4.50;99.90;;;;;;5063415;28;19988;-68
2022/11/03 01:21:09;;;;;;;;;;;4.50;99.90;;;;;;5063413;28;19991;-68
2022/11/03 01:23:36;;;;;;;;;;;4.50;99.90;;;;;;5063123;28;19988;-68
2022/11/03 01:26:04;;;;;;;;;;;4.50;99.90;;;;;;5062530;28;19991;-68
2022/11/03 01:28:31;;;;;;;;;;;4.50;99.90;;;;;;5063107;28;19953;-68
2022/11/03 01:31:03;;;;;;;;;;;4.40;99.90;;;;;;5062937;28;20027;-68
2022/11/03 01:33:30;;;;;;;;;;;4.40;99.90;;;;;;5063216;28;19984;-68
2022/11/03 01:35:56;;;;;;;;;;;4.40;99.90;;;;;;5062683;28;19979;-68
2022/11/03 01:38:23;;;;;;;;;;;4.40;99.90;;;;;;5062926;28;19927;-68
2022/11/03 01:40:50;;;;;;;;;;;4.40;99.90;;;;;;5062956;28;20128;-68
2022/11/03 01:43:17;;;;;;;;;;;4.40;99.90;;;;;;5062833;28;19989;-67
2022/11/03 01:45:44;;;;;;;;;;;4.40;99.90;;;;;;5062214;28;19992;-68
2022/11/03 01:48:12;;;;;;;;;;;4.30;99.90;;;;;;5063015;28;20247;-70
2022/11/03 01:50:40;;;;;;;;;;;4.30;99.90;;;;;;5062923;28;19959;-69
2022/11/03 01:53:07;;;;;;;;;;;4.30;99.90;;;;;;5060162;28;19996;-68
2022/11/03 01:55:38;;;;;;;;;;;4.30;99.90;;;;;;5062351;28;19983;-68
2022/11/03 01:58:07;;;;;;;;;;;4.30;99.90;;;;;;5062779;28;19920;-67
2022/11/03 02:00:34;;;;;;;;;;;4.30;99.90;;;;;;5062879;28;20287;-70
2022/11/03 02:03:01;;;;;;;;;;;4.20;99.90;;;;;;5061906;28;19983;-68
2022/11/03 02:05:30;;;;;;;;;;;4.20;99.90;;;;;;5080932;28;19980;-68
2022/11/03 02:07:58;;;;;;;;;;;4.20;99.90;;;;;;5074675;28;19956;-68
2022/11/03 02:10:25;;;;;;;;;;;4.20;99.90;;;;;;5062778;28;19984;-68
2022/11/03 02:12:52;;;;;;;;;;;4.20;99.90;;;;;;5066470;28;19984;-68
2022/11/03 02:15:20;;;;;;;;;;;4.10;99.90;;;;;;5065933;28;19992;-71
2022/11/03 02:17:47;;;;;;;;;;;4.20;99.90;;;;;;5066513;28;19952;-68
2022/11/03 02:20:15;;;;;;;;;;;4.20;99.90;;;;;;5066460;28;19987;-71
2022/11/03 02:22:57;;;;;;;;;;;4.20;99.90;;;;;;5066642;28;19984;-68
2022/11/03 02:25:50;;;;;;;;;;;5.00;99.90;;;;;;5065216;28;19921;-68
2022/11/03 02:28:19;;;;;;;;;;;4.10;99.90;;;;;;5041930;28;19959;-68
2022/11/03 02:30:49;;;;;;;;;;;4.10;99.90;;;;;;5066102;28;20003;-68
2022/11/03 02:33:21;;;;;;;;;;;4.10;99.90;;;;;;5066254;28;19987;-68
2022/11/03 02:35:50;;;;;;;;;;;4.10;99.90;;;;;;5065353;28;19992;-68
2022/11/03 02:38:18;;;;;;;;;;;4.10;99.90;;;;;;5066285;28;19959;-68
2022/11/03 02:40:46;;;;;;;;;;;4.00;99.90;;;;;;5066122;28;19952;-68
2022/11/03 02:43:14;;;;;;;;;;;4.00;99.90;;;;;;5066084;28;20190;-69
2022/11/03 02:45:44;;;;;;;;;;;4.00;99.90;;;;;;5064943;28;20015;-68
2022/11/03 02:48:11;;;;;;;;;;;4.00;99.90;;;;;;5065984;28;19960;-70
2022/11/03 02:50:38;;;;;;;;;;;4.00;99.90;;;;;;5065867;28;19952;-67
2022/11/03 02:53:04;;;;;;;;;;;3.90;99.90;;;;;;5065739;28;20267;-68
2022/11/03 02:55:33;;;;;;;;;;;4.00;99.90;;;;;;5065095;28;19988;-70
2022/11/03 02:58:05;;;;;;;;;;;3.90;99.90;;;;;;5065602;28;19992;-68
2022/11/03 03:00:33;;;;;;;;;;;3.90;99.90;;;;;;5065447;28;19964;-68
2022/11/03 03:03:03;;;;;;;;;;;3.90;99.90;;;;;;5065337;28;19959;-68
2022/11/03 03:05:31;;;;;;;;;;;3.90;99.90;;;;;;5064965;28;20151;-70
2022/11/03 03:08:00;;;;;;;;;;;3.90;99.90;;;;;;5065467;28;19983;-68
2022/11/03 03:10:30;;;;;;;;;;;3.90;99.90;;;;;;5065330;28;19988;-67
2022/11/03 03:12:57;;;;;;;;;;;3.80;99.90;;;;;;5065211;28;19988;-68
2022/11/03 03:15:26;;;;;;;;;;;3.80;99.90;;;;;;5065049;28;19984;-68
2022/11/03 03:17:53;;;;;;;;;;;3.80;99.90;;;;;;5065204;28;19988;-68
2022/11/03 03:20:24;;;;;;;;;;;3.80;99.90;;;;;;5065278;28;19987;-68
2022/11/03 03:22:53;;;;;;;;;;;3.80;99.90;;;;;;5065206;28;19928;-68
2022/11/03 03:25:22;;;;;;;;;;;3.80;99.90;;;;;;5064252;28;19999;-68
2022/11/03 03:27:50;;;;;;;;;;;3.80;99.90;;;;;;5065267;28;19971;-68
2022/11/03 03:30:17;;;;;;;;;;;3.70;99.90;;;;;;5089985;22;19991;-71
2022/11/03 03:32:46;;;;;;;;;;;3.80;99.90;;;;;;5084942;28;19951;-71
2022/11/03 03:35:15;;;;;;;;;;;3.80;99.90;;;;;;5084754;28;20196;-71
2022/11/03 03:37:46;;;;;;;;;;;3.70;99.90;;;;;;5084580;28;20211;-70
2022/11/03 03:40:15;;;;;;;;;;;3.70;99.90;;;;;;5096422;28;19999;-71
2022/11/03 03:42:42;;;;;;;;;;;3.70;99.90;;;;;;5104949;28;20262;-72
2022/11/03 03:45:10;;;;;;;;;;;3.70;99.90;;;;;;5104530;28;19947;-71
2022/11/03 03:47:36;;;;;;;;;;;3.70;99.90;;;;;;5105044;28;19952;-70
2022/11/03 03:50:03;;;;;;;;;;;3.60;99.90;;;;;;5105026;28;19970;-71
2022/11/03 03:52:30;;;;;;;;;;;3.60;99.90;;;;;;5104715;28;20140;-71
2022/11/03 03:54:58;;;;;;;;;;;3.60;99.90;;;;;;5104673;28;19951;-71
2022/11/03 03:57:27;;;;;;;;;;;3.60;99.90;;;;;;5105162;28;19988;-71
2022/11/03 03:59:54;;;;;;;;;;;3.60;99.90;;;;;;5104608;28;19963;-71
2022/11/03 04:02:20;;;;;;;;;;;3.50;99.90;;;;;;5104507;28;19920;-71
2022/11/03 04:04:47;;;;;;;;;;;3.60;99.90;;;;;;5104161;28;20010;-71
2022/11/03 04:09:59;;;;;;;;;;;3.60;99.90;;;;;;5104433;28;19956;-71
2022/11/03 04:23:24;;;;;;;;;;;3.50;99.90;;;;;;5104516;28;19923;-71
2022/11/03 04:25:54;;;;;;;;;;;3.50;99.90;;;;;;5103550;28;20026;-71
2022/11/03 04:28:20;;;;;;;;;;;3.40;99.90;;;;;;5104332;28;20171;-71
2022/11/03 04:30:47;;;;;;;;;;;3.40;99.90;;;;;;5103973;28;19982;-71
2022/11/03 04:33:15;;;;;;;;;;;3.40;99.90;;;;;;5103641;28;19957;-71
2022/11/03 04:35:43;;;;;;;;;;;3.40;99.90;;;;;;5103648;28;20207;-71
2022/11/03 04:38:18;;;;;;;;;;;3.40;99.90;;;;;;5103948;28;20201;-71
2022/11/03 04:40:45;;;;;;;;;;;3.40;99.90;;;;;;5103645;28;19951;-72
2022/11/03 04:43:14;;;;;;;;;;;3.40;99.90;;;;;;5103942;28;20242;-71
2022/11/03 04:45:42;;;;;;;;;;;3.40;99.90;;;;;;5103384;28;19991;-71
2022/11/03 04:48:12;;;;;;;;;;;3.40;99.90;;;;;;5104177;28;19991;-71
2022/11/03 04:50:39;;;;;;;;;;;3.40;99.90;;;;;;5103628;28;19951;-71
2022/11/03 04:53:09;;;;;;;;;;;3.40;99.90;;;;;;5104097;28;19983;-72
2022/11/03 04:55:36;;;;;;;;;;;3.40;99.90;;;;;;5103212;28;19992;-71
2022/11/03 04:58:07;;;;;;;;;;;3.40;99.90;;;;;;5103808;28;20002;-71
2022/11/03 05:00:35;;;;;;;;;;;3.40;99.90;;;;;;5103688;28;19951;-72
2022/11/03 05:03:02;;;;;;;;;;;3.40;99.90;;;;;;5103197;28;19979;-71
2022/11/03 05:05:28;;;;;;;;;;;3.40;99.90;;;;;;5102926;28;19958;-70
2022/11/03 05:07:56;;;;;;;;;;;3.40;99.90;;;;;;5103706;28;19952;-71
2022/11/03 05:10:25;;;;;;;;;;;3.40;99.90;;;;;;5103589;28;19982;-71
2022/11/03 05:12:52;;;;;;;;;;;3.30;99.90;;;;;;5103616;28;19992;-71
2022/11/03 05:15:29;;;;;;;;;;;3.40;99.90;;;;;;5103049;28;19987;-71
2022/11/03 05:17:59;;;;;;;;;;;3.40;99.90;;;;;;5098375;28;19920;-71
2022/11/03 05:20:29;;;;;;;;;;;3.30;99.90;;;;;;5103818;28;19958;-72
2022/11/03 05:22:55;;;;;;;;;;;3.30;99.90;;;;;;5103971;28;20000;-71
2022/11/03 05:25:35;;;;;;;;;;;3.30;99.90;;;;;;5103267;28;19986;-72
2022/11/03 05:28:02;;;;;;;;;;;3.30;99.90;;;;;;5103909;28;19920;-71
2022/11/03 05:30:28;;;;;;;;;;;3.30;99.90;;;;;;5103634;28;19983;-71
2022/11/03 05:32:55;;;;;;;;;;;3.30;99.90;;;;;;5103887;28;19920;-70
2022/11/03 05:35:23;;;;;;;;;;;3.30;99.90;;;;;;5103627;28;19987;-71
2022/11/03 05:37:51;;;;;;;;;;;3.30;99.90;;;;;;5103734;28;19947;-71
2022/11/03 05:40:21;;;;;;;;;;;3.30;99.90;;;;;;5103568;28;19947;-71
2022/11/03 05:42:50;;;;;;;;;;;3.30;99.90;;;;;;5103880;28;19920;-70
2022/11/03 05:45:20;;;;;;;;;;;3.30;99.90;;;;;;5103442;28;19920;-71
2022/11/03 05:47:47;;;;;;;;;;;3.30;99.90;;;;;;5108219;28;19960;-72
2022/11/03 05:50:16;;;;;;;;;;;3.30;99.90;;;;;;5107804;28;19970;-71
2022/11/03 05:52:45;;;;;;;;;;;3.30;99.90;;;;;;5107980;28;19947;-70
2022/11/03 05:55:19;;;;;;;;;;;3.30;99.90;;;;;;5107556;28;19987;-70
2022/11/03 05:57:46;;;;;;;;;;;3.30;99.90;;;;;;5107885;28;19962;-71
2022/11/03 06:00:21;;;;;;;;;;;3.30;99.90;;;;;;5107203;28;19959;-73
2022/11/03 06:02:49;;;;;;;;;;;3.30;99.90;;;;;;5107415;28;19920;-70
2022/11/03 06:05:18;;;;;;;;;;;3.30;99.90;;;;;;5107084;28;20177;-72
2022/11/03 06:07:47;;;;;;;;;;;3.30;99.90;;;;;;5107452;28;20147;-71
2022/11/03 06:10:20;;;;;;;;;;;3.30;99.90;;;;;;5107402;28;20073;-71
2022/11/03 06:12:47;;;;;;;;;;;3.30;99.90;;;;;;5107514;28;20140;-71
2022/11/03 06:15:22;;;;;;;;;;;3.30;99.90;;;;;;5106678;28;19920;-71
2022/11/03 06:17:50;;;;;;;;;;;3.20;99.90;;;;;;5107078;28;19992;-71
2022/11/03 06:20:18;;;;;;;;;;;3.20;99.90;;;;;;5106526;28;20221;-72
2022/11/03 06:22:47;;;;;;;;;;;3.20;99.90;;;;;;5102241;28;20288;-73
2022/11/03 06:25:19;;;;;;;;;;;3.20;99.90;;;;;;5103112;28;19965;-71
2022/11/03 06:27:46;;;;;;;;;;;3.20;99.90;;;;;;5106591;28;19959;-71
2022/11/03 06:30:19;;;;;;;;;;;3.20;99.90;;;;;;5106202;28;19952;-71
2022/11/03 06:32:46;;;;;;;;;;;3.20;99.90;;;;;;5106026;28;19987;-71
2022/11/03 06:35:13;;;;;;;;;;;3.20;99.90;;;;;;5106635;28;20090;-71
2022/11/03 06:37:41;;;;;;;;;;;3.20;99.90;;;;;;5106701;28;20262;-70
2022/11/03 06:40:32;;;;;;;;;;;3.20;99.90;;;;;;5106714;28;19987;-69
2022/11/03 06:42:59;;;;;;;;;;;3.20;99.90;;;;;;5106187;28;19987;-70
2022/11/03 06:45:26;;;;;;;;;;;3.30;99.90;;;;;;5106150;28;20259;-70
2022/11/03 06:47:53;;;;;;;;;;;3.30;99.90;;;;;;5105994;28;19958;-69
2022/11/03 06:50:22;;;;;;;;;;;3.30;99.90;;;;;;5106312;28;19987;-69
2022/11/03 06:52:49;;;;;;;;;;;3.30;99.90;;;;;;5102269;28;20251;-69
2022/11/03 06:55:22;;;;;;;;;;;3.30;99.90;;;;;;5106060;28;19979;-69
2022/11/03 06:57:48;;;;;;;;;;;3.40;99.90;;;;;;5105283;28;19987;-70
2022/11/03 07:00:17;;;;;;;;;;;3.30;99.90;;;;;;5106160;28;19955;-70
2022/11/03 07:02:53;;;;;;;;;;;3.40;99.90;;;;;;5105423;28;20258;-70
2022/11/03 07:05:21;;;;;;;;;;;3.40;99.90;;;;;;5105528;28;19987;-70
2022/11/03 07:07:48;;;;;;;;;;;3.40;99.90;;;;;;5105471;28;19924;-70
2022/11/03 07:10:15;;;;;;;;;;;3.40;99.90;;;;;;5105648;28;19987;-69
2022/11/03 07:12:43;;;;;;;;;;;3.50;99.90;;;;;;5105706;28;19955;-70
2022/11/03 07:15:20;;;;;;;;;;;3.50;99.90;;;;;;5105354;28;20154;-70
2022/11/03 07:17:46;;;;;;;;;;;3.50;99.90;;;;;;5105574;28;19951;-70
2022/11/03 07:20:14;;;;;;;;;;;3.60;99.90;;;;;;5105446;28;19983;-72
2022/11/03 07:22:41;;;;;;;;;;;3.60;99.90;;;;;;5105804;28;19923;-70
2022/11/03 07:25:10;;;;;;;;;;;3.60;99.90;;;;;;5105749;28;19959;-70
2022/11/03 07:27:38;;;;;;;;;;;3.60;99.90;;;;;;5105500;28;20151;-70
2022/11/03 07:30:13;;;;;;;;;;;3.70;99.90;;;;;;5105240;28;19966;-70
2022/11/03 07:32:40;;;;;;;;;;;3.70;99.90;;;;;;5105232;28;19979;-70
2022/11/03 07:35:17;;;;;;;;;;;3.80;99.90;;;;;;5104899;28;20161;-70
2022/11/03 07:37:44;;;;;;;;;;;3.80;99.90;;;;;;5105382;28;19979;-70
2022/11/03 07:40:13;;;;;;;;;;;3.80;99.90;;;;;;5105202;28;19983;-70
2022/11/03 07:42:39;;;;;;;;;;;3.90;99.90;;;;;;5105255;28;19987;-70
2022/11/03 07:45:27;;;;;;;;;;;3.90;99.90;;;;;;5105071;28;20156;-69
2022/11/03 07:47:53;;;;;;;;;;;4.00;99.90;;;;;;5104481;28;20170;-70
2022/11/03 07:50:20;;;;;;;;;;;4.10;99.90;;;;;;5104723;28;19991;-70
2022/11/03 07:52:47;;;;;;;;;;;4.20;99.90;;;;;;5104811;28;19957;-68
2022/11/03 07:55:14;;;;;;;;;;;4.30;99.90;;;;;;5104513;28;19987;-68
2022/11/03 07:57:41;;;;;;;;;;;4.50;99.90;;;;;;5104834;28;19995;-68
2022/11/03 08:00:16;;;;;;;;;;;4.70;99.90;;;;;;5104870;28;20012;-68
2022/11/03 08:02:47;;;;;;;;;;;4.90;99.90;;;;;;5099914;28;19952;-68
2022/11/03 08:05:13;;;;;;;;;;;5.30;99.90;;;;;;5104416;28;19947;-67
2022/11/03 08:07:40;;;;;;;;;;;5.70;99.90;;;;;;5104034;28;19995;-68
2022/11/03 08:10:07;;;;;;;;;;;5.90;99.90;;;;;;5104306;28;19956;-68
2022/11/03 08:12:34;;;;;;;;;;;6.20;99.90;;;;;;5104772;28;19995;-68
2022/11/03 08:15:00;;;;;;;;;;;6.30;99.90;;;;;;5104687;28;19992;-65
2022/11/03 08:17:28;;;;;;;;;;;6.50;99.90;;;;;;5104483;28;19991;-66
2022/11/03 08:19:55;;;;;;;;;;;6.70;99.90;;;;;;5104821;28;19986;-72
2022/11/03 08:22:24;;;;;;;;;;;7.00;99.90;;;;;;5104862;28;20090;-72
2022/11/03 08:24:51;;;;;;;;;;;7.20;99.90;;;;;;5104265;28;19927;-72
2022/11/03 08:27:18;;;;;;;;;;;7.30;99.90;;;;;;5104701;28;19988;-72
2022/11/03 08:29:44;;;;;;;;;;;7.50;99.90;;;;;;5104085;28;20078;-72
2022/11/03 08:32:11;;;;;;;;;;;7.60;99.90;;;;;;5104315;28;20168;-72
2022/11/03 08:34:39;;;;;;;;;;;7.80;99.90;;;;;;5103880;28;19983;-72
2022/11/03 08:37:06;;;;;;;;;;;8.00;99.90;;;;;;5104146;28;19988;-72
2022/11/03 08:39:34;;;;;;;;;;;8.10;99.90;;;;;;5103853;28;19980;-72
2022/11/03 08:42:01;;;;;;;;;;;8.20;99.90;;;;;;5103780;28;19920;-72
2022/11/03 08:44:28;;;;;;;;;;;8.30;99.90;;;;;;5103946;28;19990;-72
2022/11/03 08:46:54;;;;;;;;;;;8.40;99.90;;;;;;5103957;28;19988;-71
2022/11/03 08:49:21;;;;;;;;;;;8.50;99.90;;;;;;5103908;28;19956;-72
2022/11/03 08:51:49;;;;;;;;;;;8.50;99.90;;;;;;5103671;28;20255;-72
2022/11/03 08:54:16;;;;;;;;;;;8.60;99.90;;;;;;5103805;28;19962;-72
2022/11/03 08:56:43;;;;;;;;;;;8.70;99.90;;;;;;5103160;28;19920;-72
2022/11/03 08:59:10;;;;;;;;;;;8.70;99.90;;;;;;5103876;28;19920;-72
2022/11/03 09:01:36;;;;;;;;;;;8.80;99.90;;;;;;5098850;28;19980;-73
2022/11/03 09:04:03;;;;;;;;;;;8.90;99.90;;;;;;5103722;28;19959;-72
2022/11/03 09:06:29;;;;;;;;;;;8.90;99.90;;;;;;5103250;28;19994;-72
2022/11/03 09:08:57;;;;;;;;;;;9.00;99.90;;;;;;5103477;28;19948;-72
2022/11/03 09:11:24;;;;;;;;;;;9.10;99.90;;;;;;5103568;28;20160;-72
2022/11/03 09:13:51;;;;;;;;;;;9.20;99.90;;;;;;5103770;28;19987;-72
2022/11/03 09:16:17;;;;;;;;;;;9.20;99.90;;;;;;5103199;28;19947;-72
2022/11/03 09:18:44;;;;;;;;;;;9.30;99.90;;;;;;5103646;28;20171;-72
2022/11/03 09:21:12;;;;;;;;;;;9.30;99.90;;;;;;5103206;28;19924;-72
2022/11/03 09:23:39;;;;;;;;;;;9.40;99.90;;;;;;5103434;28;19920;-72
2022/11/03 09:26:07;;;;;;;;;;;9.40;99.90;;;;;;5103347;28;19949;-72
2022/11/03 09:28:33;;;;;;;;;;;9.50;99.90;;;;;;5103487;28;20225;-68
2022/11/03 09:31:00;;;;;;;;;;;9.50;99.90;;;;;;5099101;22;20267;-86
2022/11/03 09:33:27;;;;;;;;;;;9.60;99.90;;;;;;5065618;28;19956;-87
2022/11/03 09:35:53;;;;;;;;;;;9.60;99.90;;;;;;5063163;28;19920;-87
2022/11/03 09:38:20;;;;;;;;;;;9.70;99.90;;;;;;5061260;28;19992;-87
2022/11/03 09:40:47;;;;;;;;;;;9.70;99.90;;;;;;5054413;28;19920;-87
2022/11/03 09:43:15;;;;;;;;;;;9.80;99.90;;;;;;5075604;22;19992;-69
2022/11/03 09:45:41;;;;;;;;;;;9.80;99.90;;;;;;5023589;28;20193;-69
2022/11/03 09:48:09;;;;;;;;;;;9.90;99.90;;;;;;5023747;28;20153;-69
2022/11/03 09:50:38;;;;;;;;;;;10.00;99.90;;;;;;5022837;28;19993;-69
2022/11/03 09:53:05;;;;;;;;;;;10.10;99.90;;;;;;5022927;28;19922;-69
2022/11/03 09:55:33;;;;;;;;;;;10.20;99.90;;;;;;5023352;28;19984;-69
2022/11/03 09:58:01;;;;;;;;;;;10.20;99.90;;;;;;5023659;28;20152;-68
2022/11/03 10:03:06;;;;;;;;;;;10.70;99.90;;;;;;5040512;28;19921;-69
2022/11/03 10:05:33;;;;;;;;;;;10.50;99.90;;;;;;5023928;28;20100;-67
2022/11/03 10:08:01;;;;;;;;;;;10.60;99.90;;;;;;5031305;28;19952;-69
2022/11/03 10:10:29;;;;;;;;;;;10.60;99.90;;;;;;5042805;28;19921;-68
2022/11/03 10:12:55;;;;;;;;;;;10.70;99.90;;;;;;5042996;28;19953;-69
2022/11/03 10:15:23;;;;;;;;;;;10.80;99.90;;;;;;5042709;28;19956;-65
2022/11/03 10:17:50;;;;;;;;;;;10.90;99.90;;;;;;5042882;28;19928;-69
2022/11/03 10:20:25;;;;;;;;;;;11.10;99.90;;;;;;5042883;28;20004;-69
2022/11/03 10:22:53;;;;;;;;;;;11.20;99.90;;;;;;5042622;28;19921;-68
2022/11/03 10:25:33;;;;;;;;;;;11.40;99.90;;;;;;5042745;28;19988;-70
2022/11/03 10:28:14;;;;;;;;;;;11.60;99.90;;;;;;5042151;28;19992;-67
2022/11/03 10:30:48;;;;;;;;;;;11.80;99.90;;;;;;5042923;28;19948;-68
2022/11/03 10:33:24;;;;;;;;;;;11.90;99.90;;;;;;5045619;28;19992;-68
2022/11/03 10:35:52;;;;;;;;;;;12.00;99.90;;;;;;5045776;28;19951;-68
2022/11/03 10:38:22;;;;;;;;;;;12.20;99.90;;;;;;5045734;28;19984;-68
2022/11/03 10:40:48;;;;;;;;;;;12.40;99.90;;;;;;5037676;28;19963;-68
2022/11/03 10:43:15;;;;;;;;;;;12.60;99.90;;;;;;5046410;28;19953;-68
2022/11/03 10:45:41;;;;;;;;;;;12.70;99.90;;;;;;5045889;28;20259;-68
2022/11/03 10:48:10;;;;;;;;;;;12.90;99.90;;;;;;5046279;28;19980;-67
2022/11/03 10:50:38;;;;;;;;;;;12.90;99.90;;;;;;5029499;28;19921;-68
2022/11/03 10:53:13;;;;;;;;;;;12.90;99.90;;;;;;5025957;28;19942;-68
2022/11/03 10:55:40;;;;;;;;;;;13.00;99.90;;;;;;5025514;28;19968;-68
2022/11/03 10:58:07;;;;;;;;;;;12.90;99.90;;;;;;5026021;28;20012;-68
2022/11/03 11:00:33;;;;;;;;;;;12.90;99.90;;;;;;5026070;28;20107;-68
2022/11/03 11:03:00;;;;;;;;;;;12.90;99.90;;;;;;5034400;28;19985;-68
2022/11/03 11:05:27;;;;;;;;;;;12.90;99.90;;;;;;5043314;28;20120;-68
2022/11/03 11:07:54;;;;;;;;;;;12.90;99.90;;;;;;5045320;28;19921;-68
2022/11/03 11:10:24;;;;;;;;;;;12.60;99.90;;;;;;5045422;28;20172;-68
2022/11/03 11:13:13;;;;;;;;;;;12.50;99.90;;;;;;5045486;28;19994;-68
2022/11/03 11:15:40;;;;;;;;;;;12.50;99.90;;;;;;5045339;28;19964;-69
2022/11/03 11:18:07;;;;;;;;;;;12.50;99.90;;;;;;5045344;28;19948;-68
2022/11/03 11:20:35;;;;;;;;;;;12.50;99.90;;;;;;5044843;28;19988;-68
2022/11/03 11:23:20;;;;;;;;;;;12.50;99.90;;;;;;5045430;28;20008;-68
2022/11/03 11:28:45;;;;;;;;;;;12.40;99.90;;;;;;5121200;27;19935;-69
2022/11/03 11:31:28;;;;;;;;;;;12.40;99.90;;;;;;5120984;28;19996;-69
2022/11/03 11:34:16;;;;;;;;;;;12.40;99.90;;;;;;5121080;28;19928;-69
2022/11/03 11:36:43;;;;;;;;;;;12.40;99.90;;;;;;5120690;28;19920;-69
2022/11/03 11:42:03;;;;;;;;;;;12.30;99.90;;;;;;5099155;28;19920;-71
2022/11/03 11:44:57;;;;;;;;;;;12.30;99.90;;;;;;5100511;28;19921;-70
2022/11/03 11:47:27;;;;;;;;;;;12.20;99.90;;;;;;5052832;28;19995;-71
2022/11/03 11:50:02;;;;;;;;;;;12.20;99.90;;;;;;5106865;28;19991;-70
2022/11/03 11:52:30;;;;;;;;;;;12.20;99.90;;;;;;5120923;28;19951;-71
2022/11/03 11:54:56;;;;;;;;;;;12.10;99.90;;;;;;5120570;28;20021;-71
2022/11/03 11:57:23;;;;;;;;;;;12.20;99.90;;;;;;5120590;28;19998;-70
2022/11/03 11:59:51;;;;;;;;;;;12.20;99.90;;;;;;5117197;28;19952;-71
2022/11/03 12:02:19;;;;;;;;;;;12.10;99.90;;;;;;5120203;28;20011;-70
2022/11/03 12:04:47;;;;;;;;;;;12.10;99.90;;;;;;5112738;28;19952;-71
2022/11/03 12:07:14;;;;;;;;;;;12.10;99.90;;;;;;5120235;28;19927;-71
2022/11/03 12:09:42;;;;;;;;;;;12.00;99.90;;;;;;5120560;28;19983;-71
2022/11/03 12:12:09;;;;;;;;;;;12.00;99.90;;;;;;5120304;28;19920;-70
2022/11/03 12:14:36;;;;;;;;;;;11.90;99.90;;;;;;5119971;28;19920;-71
2022/11/03 12:17:22;;;;;;;;;;;11.80;99.90;;;;;;5120485;28;20108;-70
2022/11/03 12:19:50;;;;;;;;;;;11.70;99.90;;;;;;5120419;28;19987;-71
2022/11/03 12:22:31;;;;;;;;;;;11.60;99.90;;;;;;5120125;28;20253;-72
2022/11/03 12:24:58;;;;;;;;;;;11.60;99.90;;;;;;5118960;28;19986;-71
2022/11/03 12:27:41;;;;;;;;;;;11.60;99.90;;;;;;5120330;28;19926;-71
2022/11/03 12:30:12;;;;;;;;;;;11.60;99.90;;;;;;5120168;28;19987;-71
2022/11/03 12:32:39;;;;;;;;;;;11.60;99.90;;;;;;5119967;28;19959;-71
2022/11/03 12:35:08;;;;;;;;;;;11.50;99.90;;;;;;5119566;28;19987;-71
2022/11/03 12:37:35;;;;;;;;;;;11.50;99.90;;;;;;5119494;28;19987;-71
2022/11/03 12:40:01;;;;;;;;;;;11.50;99.90;;;;;;5099549;28;19995;-72
2022/11/03 12:42:28;;;;;;;;;;;11.50;99.90;;;;;;5104083;28;19983;-71
2022/11/03 12:44:54;;;;;;;;;;;11.40;99.90;;;;;;5100436;28;19980;-71
2022/11/03 12:47:21;;;;;;;;;;;11.40;99.90;;;;;;5086209;28;19991;-71
2022/11/03 12:49:48;;;;;;;;;;;11.30;99.90;;;;;;5106029;28;19988;-71
2022/11/03 12:52:16;;;;;;;;;;;11.20;99.90;;;;;;5106019;28;20186;-71
2022/11/03 12:54:43;;;;;;;;;;;11.20;99.90;;;;;;5105491;28;19988;-71
2022/11/03 12:57:09;;;;;;;;;;;11.20;99.90;;;;;;5106111;28;20211;-71
2022/11/03 12:59:36;;;;;;;;;;;11.20;99.90;;;;;;5106343;28;19983;-72
2022/11/03 13:02:03;;;;;;;;;;;11.20;99.90;;;;;;5105924;28;19983;-71
2022/11/03 13:04:30;;;;;;;;;;;11.30;99.90;;;;;;5105730;28;20276;-71
2022/11/03 13:06:56;;;;;;;;;;;11.30;99.90;;;;;;5105939;28;19995;-72
2022/11/03 13:09:24;;;;;;;;;;;11.30;99.90;;;;;;5085441;28;19975;-71
2022/11/03 13:14:35;;;;;;;;;;;11.20;99.90;;;;;;5085294;28;19955;-71
2022/11/03 13:17:02;;;;;;;;;;;11.20;99.90;;;;;;5085597;28;19952;-71
2022/11/03 13:19:29;;;;;;;;;;;11.20;99.90;;;;;;5085178;28;19927;-72
2022/11/03 13:21:55;;;;;;;;;;;11.20;99.90;;;;;;5085516;28;20136;-73
2022/11/03 13:24:22;;;;;;;;;;;11.10;99.90;;;;;;5085603;28;19952;-71
2022/11/03 13:26:50;;;;;;;;;;;11.10;99.90;;;;;;5085307;28;19987;-71
2022/11/03 13:29:17;;;;;;;;;;;11.20;99.90;;;;;;5085089;28;19952;-71
2022/11/03 13:31:43;;;;;;;;;;;11.10;99.90;;;;;;5084931;28;20273;-72
2022/11/03 13:34:10;;;;;;;;;;;11.20;99.90;;;;;;5085174;28;20276;-72
2022/11/03 13:36:36;;;;;;;;;;;11.20;99.90;;;;;;5084578;28;19987;-71
2022/11/03 13:39:03;;;;;;;;;;;11.20;99.90;;;;;;5097829;28;19952;-70
2022/11/03 13:41:30;;;;;;;;;;;11.10;99.90;;;;;;5105020;28;20267;-70
2022/11/03 13:43:58;;;;;;;;;;;11.10;99.90;;;;;;5105467;28;19991;-68
2022/11/03 13:46:24;;;;;;;;;;;11.10;99.90;;;;;;5103981;28;20230;-68
2022/11/03 13:48:51;;;;;;;;;;;11.10;99.90;;;;;;5105259;28;19987;-70
2022/11/03 13:51:18;;;;;;;;;;;11.10;99.90;;;;;;5103406;28;19987;-70
2022/11/03 13:53:44;;;;;;;;;;;11.10;99.90;;;;;;5104959;28;19927;-70
2022/11/03 13:56:11;;;;;;;;;;;11.10;99.90;;;;;;5103297;28;19987;-70
2022/11/03 13:58:38;;;;;;;;;;;11.10;99.90;;;;;;5105260;28;19951;-70
2022/11/03 14:01:06;;;;;;;;;;;11.10;99.90;;;;;;5104950;28;19999;-70
2022/11/03 14:03:32;;;;;;;;;;;11.00;99.90;;;;;;5105062;28;19920;-70
2022/11/03 14:05:59;;;;;;;;;;;11.00;99.90;;;;;;5104744;28;19984;-68
2022/11/03 14:08:25;;;;;;;;;;;11.00;99.90;;;;;;5104753;28;19943;-70
2022/11/03 14:10:52;;;;;;;;;;;11.00;99.90;;;;;;5104694;28;20242;-70
2022/11/03 14:13:18;;;;;;;;;;;10.90;99.90;;;;;;5104540;28;19987;-70
2022/11/03 14:15:44;;;;;;;;;;;10.90;99.90;;;;;;5104180;28;19916;-69
2022/11/03 14:18:12;;;;;;;;;;;10.90;99.90;;;;;;5104716;28;19986;-69
2022/11/03 14:20:39;;;;;;;;;;;10.90;99.90;;;;;;5104381;28;19947;-70
2022/11/03 14:23:06;;;;;;;;;;;11.00;99.90;;;;;;5104367;28;19991;-69
2022/11/03 14:25:32;;;;;;;;;;;10.90;99.90;;;;;;5104380;28;19951;-69
2022/11/03 14:27:59;;;;;;;;;;;10.90;99.90;;;;;;5104278;28;19920;-69
2022/11/03 14:30:25;;;;;;;;;;;10.90;99.90;;;;;;5104481;28;19995;-69
2022/11/03 14:32:52;;;;;;;;;;;10.90;99.90;;;;;;5104502;28;19920;-69
2022/11/03 14:35:22;;;;;;;;;;;10.80;99.90;;;;;;5100992;28;20107;-69
2022/11/03 14:37:49;;;;;;;;;;;10.90;99.90;;;;;;5104369;28;19961;-70
2022/11/03 14:42:02;;;;;;;;;;;10.80;99.90;;;;;;5101799;28;19960;-69
2022/11/03 14:43:11;;;;;;;;;;;10.80;99.90;;;;;;5103357;28;19966;-70
2022/11/03 14:45:38;;;;;;;;;;;10.80;99.90;;;;;;5084132;28;19917;-70
2022/11/03 14:48:05;;;;;;;;;;;10.80;99.90;;;;;;5083878;28;19920;-70
2022/11/03 14:50:33;;;;;;;;;;;10.80;99.90;;;;;;5083527;28;20177;-70
2022/11/03 14:52:59;;;;;;;;;;;10.80;99.90;;;;;;5083651;28;20250;-70
2022/11/03 14:55:26;;;;;;;;;;;10.80;99.90;;;;;;5083560;28;20011;-70
2022/11/03 14:57:53;;;;;;;;;;;10.80;99.90;;;;;;5082658;28;20157;-70
2022/11/03 15:00:20;;;;;;;;;;;10.70;99.90;;;;;;5083477;28;20059;-70
2022/11/03 15:02:46;;;;;;;;;;;10.70;99.90;;;;;;5100869;28;20093;-70
2022/11/03 15:05:42;;;;;;;;;;;10.70;99.90;;;;;;5094679;28;19987;-70